Lifter — V2DD4 — position and weather

sailwx.info

Track history (hours):
 
Tides and Currents Weather Stations Pressure Air Temp Water Temp Dewpoint Dewpoint Depression Visibility Wind Speed Wind Dir Waves Ship Positions

Lifter

Last reported at 2017-Jun-23 12:40 UTC. Time now 2017-Jun-23 14:00 UTC.
Position N 35°48' E 031°19'.

Length 119 m; draft 7.2 m.

Type: Cargo ship. MMSI: 305175000.

Date/timePositionNaut miles runAvg speedWind from/ knotsBaromVisibWave heightAir tempDewpointWater temp
2017-Jun-23 12:40N 35°48' E 031°19'211.8
2017-Jun-23 12:31N 35°48' E 031°22'148 9.4
2017-Jun-22 20:43N 35°26' E 034°21'1111.7
2017-Jun-22 19:45N 35°19' E 034°10'311.7
2017-Jun-22 19:30N 35°18' E 034°08'12 7.1
2017-Jun-22 17:51N 35°09' E 033°58'1 2.9
2017-Jun-22 17:30N 35°10' E 033°58'510.2
2017-Jun-22 17:00N 35°15' E 033°58'  
2017-Jun-20 05:39N 32°54' E 034°48'210.7
2017-Jun-20 05:25N 32°54' E 034°51'511.4
2017-Jun-20 05:00N 32°52' E 034°57'5 9.5
2017-Jun-20 04:30N 32°49' E 035°01'0 0.7
2017-Jun-20 03:59N 32°49' E 035°01'0 0.0
2017-Jun-20 03:29N 32°49' E 035°01'0 0.0
2017-Jun-20 02:59N 32°49' E 035°01'0 0.0
2017-Jun-20 02:29N 32°49' E 035°01'0 0.0
2017-Jun-20 01:59N 32°49' E 035°01'0 0.0
2017-Jun-20 01:29N 32°49' E 035°01'0 0.0
2017-Jun-20 00:59N 32°49' E 035°01'1 1.7
2017-Jun-20 00:30N 32°50' E 035°01'2 3.0
2017-Jun-20 00:00N 32°51' E 035°00'2 4.0
2017-Jun-19 23:30N 32°52' E 034°58'611.7
2017-Jun-19 23:00N 32°53' E 034°51'1512.0
2017-Jun-19 21:48N 32°56' E 034°34'5 4.3
2017-Jun-19 20:33N 32°54' E 034°40'0 9.6
2017-Jun-19 20:30N 32°54' E 034°40'4 6.9
2017-Jun-19 19:53N 32°56' E 034°36'511.1
2017-Jun-19 19:26N 32°57' E 034°30'511.1
2017-Jun-19 18:58N 32°58' E 034°24'1911.4
2017-Jun-19 17:18N 33°01' E 034°01'711.5
2017-Jun-19 16:39N 33°03' E 033°53'  
2017-Jun-16 10:46N 36°26' E 015°41'412.5
2017-Jun-16 10:29N 36°27' E 015°37'812.3
2017-Jun-16 09:50N 36°28' E 015°27'412.2
2017-Jun-16 09:29N 36°29' E 015°22'612.2
2017-Jun-16 09:00N 36°30' E 015°15'612.0
2017-Jun-16 08:30N 36°30' E 015°08'612.2
2017-Jun-16 08:00N 36°31' E 015°00'712.9
2017-Jun-16 07:30N 36°32' E 014°52'613.1
2017-Jun-16 07:00N 36°35' E 014°45'713.2
2017-Jun-16 06:30N 36°38' E 014°37'713.4
2017-Jun-16 06:00N 36°40' E 014°30'713.2
2017-Jun-16 05:30N 36°42' E 014°22'612.6
2017-Jun-16 05:00N 36°46' E 014°15'612.6
2017-Jun-16 04:30N 36°48' E 014°08'612.6
2017-Jun-16 04:00N 36°51' E 014°01'612.5
2017-Jun-16 03:30N 36°53' E 013°53'612.5
2017-Jun-16 03:00N 36°55' E 013°46'612.4
2017-Jun-16 02:30N 36°58' E 013°39'612.2
2017-Jun-16 02:00N 36°60' E 013°32'612.0
2017-Jun-16 01:30N 37°02' E 013°25'612.0
2017-Jun-16 01:00N 37°05' E 013°18'611.9
2017-Jun-16 00:30N 37°07' E 013°11'611.9
2017-Jun-16 00:00N 37°09' E 013°04'612.3
2017-Jun-15 23:30N 37°12' E 012°57'612.2
2017-Jun-15 23:00N 37°14' E 012°50'612.1
2017-Jun-15 22:30N 37°15' E 012°43'612.2
2017-Jun-15 22:00N 37°16' E 012°35'612.4
2017-Jun-15 21:30N 37°17' E 012°27'612.0
2017-Jun-15 21:00N 37°18' E 012°20'611.7
2017-Jun-15 20:30N 37°18' E 012°13'611.7
2017-Jun-15 20:00N 37°19' E 012°05'612.1
2017-Jun-15 19:30N 37°19' E 011°58'611.9
2017-Jun-15 19:00N 37°19' E 011°50'611.8
2017-Jun-15 18:30N 37°20' E 011°43'612.0
2017-Jun-15 18:00N 37°20' E 011°35'611.6
2017-Jun-15 17:30N 37°19' E 011°28'611.6
2017-Jun-15 17:00N 37°20' E 011°21'611.6
2017-Jun-15 16:30N 37°21' E 011°14'612.0
2017-Jun-15 16:00N 37°24' E 011°07'612.0
2017-Jun-15 15:28N 37°25' E 010°59'612.0
2017-Jun-15 15:00N 37°27' E 010°52'1211.9
2017-Jun-15 13:59N 37°29' E 010°37'911.9
2017-Jun-15 13:14N 37°31' E 010°26'312.0
2017-Jun-15 12:59N 37°32' E 010°22'612.2
2017-Jun-15 12:27N 37°33' E 010°14'612.3
2017-Jun-15 12:00N 37°33' E 010°07'612.4
2017-Jun-15 11:29N 37°34' E 009°60'612.3
2017-Jun-15 11:00N 37°33' E 009°52'612.3
2017-Jun-15 10:30N 37°32' E 009°44'612.2
2017-Jun-15 09:59N 37°32' E 009°36'612.2
2017-Jun-15 09:30N 37°31' E 009°29'612.2
2017-Jun-15 09:00N 37°30' E 009°21'612.1
2017-Jun-15 08:30N 37°29' E 009°14'612.2
2017-Jun-15 08:00N 37°27' E 009°07'612.1
2017-Jun-15 07:29N 37°25' E 008°59'612.1
2017-Jun-15 06:58N 37°24' E 008°51'611.9
2017-Jun-15 06:29N 37°22' E 008°44'611.8
2017-Jun-15 05:59N 37°21' E 008°37'611.8
2017-Jun-15 05:30N 37°20' E 008°30'711.5
2017-Jun-15 04:53N 37°20' E 008°21'611.7
2017-Jun-15 04:24N 37°19' E 008°14'511.9
2017-Jun-15 04:00N 37°20' E 008°08'812.5
2017-Jun-15 03:22N 37°20' E 007°58'512.7
2017-Jun-15 03:00N 37°20' E 007°52'712.7
2017-Jun-15 02:29N 37°20' E 007°44'1012.4
2017-Jun-15 01:42N 37°20' E 007°32'412.4
2017-Jun-15 01:20N 37°20' E 007°26'612.2
2017-Jun-15 00:50N 37°20' E 007°18'412.1
2017-Jun-15 00:30N 37°20' E 007°13'712.2
2017-Jun-14 23:54N 37°19' E 007°04'712.4
2017-Jun-14 23:22N 37°19' E 006°56'612.6
2017-Jun-14 22:55N 37°19' E 006°49'612.6
2017-Jun-14 22:27N 37°18' E 006°41'1012.4
2017-Jun-14 21:39N 37°18' E 006°29'212.4
2017-Jun-14 21:28N 37°17' E 006°26'1012.4
2017-Jun-14 20:40N 37°17' E 006°13'312.4
2017-Jun-14 20:23N 37°16' E 006°09'512.5
2017-Jun-14 19:59N 37°16' E 006°03'712.4
2017-Jun-14 19:26N 37°15' E 005°54'612.2
2017-Jun-14 18:54N 37°15' E 005°46'512.3
2017-Jun-14 18:30N 37°14' E 005°40'612.3
2017-Jun-14 18:00N 37°14' E 005°32'712.2
2017-Jun-14 17:25N 37°13' E 005°23'512.2
2017-Jun-14 16:59N 37°13' E 005°17'612.1
2017-Jun-14 16:28N 37°12' E 005°09'912.1
2017-Jun-14 15:43N 37°12' E 004°58'312.1
2017-Jun-14 15:29N 37°11' E 004°54'712.2
2017-Jun-14 14:57N 37°11' E 004°46'1212.2
2017-Jun-14 13:57N 37°10' E 004°31'912.1
2017-Jun-14 13:11N 37°10' E 004°19'312.2
2017-Jun-14 12:54N 37°09' E 004°15'512.2
2017-Jun-14 12:30N 37°09' E 004°09'612.2
2017-Jun-14 12:00N 37°09' E 004°01'611.9
2017-Jun-14 11:30N 37°08' E 003°54'612.2
2017-Jun-14 11:00N 37°08' E 003°46'1212.5
2017-Jun-14 10:02N 37°06' E 003°31'112.8
2017-Jun-14 09:59N 37°06' E 003°30'712.8
2017-Jun-14 09:26N 37°05' E 003°21'612.9
2017-Jun-14 09:00N 37°04' E 003°15'812.8
2017-Jun-14 08:24N 37°03' E 003°05'512.6
2017-Jun-14 08:00N 37°01' E 002°59'612.6
2017-Jun-14 07:30N 36°60' E 002°51'612.5
2017-Jun-14 07:00N 36°58' E 002°44'1812.4
2017-Jun-14 05:33N 36°55' E 002°22'112.2
2017-Jun-14 05:30N 36°55' E 002°21'2111.9
2017-Jun-14 03:43N 36°52' E 001°54'311.8
2017-Jun-14 03:30N 36°52' E 001°51'611.8
2017-Jun-14 02:59N 36°51' E 001°44'611.7
2017-Jun-14 02:27N 36°50' E 001°36'1111.5
2017-Jun-14 01:28N 36°48' E 001°22'711.7
2017-Jun-14 00:54N 36°47' E 001°14'3312.3
2017-Jun-13 22:14N 36°42' E 000°33'312.3
2017-Jun-13 21:59N 36°42' E 000°30'612.3
2017-Jun-13 21:30N 36°41' E 000°22'612.1
2017-Jun-13 21:00N 36°40' E 000°15'3311.8
2017-Jun-13 18:13N 36°35' W 000°25'311.5
2017-Jun-13 18:00N 36°34' W 000°29'1811.4
2017-Jun-13 16:24N 36°32' W 000°51'511.5
2017-Jun-13 16:00N 36°31' W 000°57'611.5
2017-Jun-13 15:30N 36°30' W 001°04'  
Track history (hours):
 
Tides and Currents Weather Stations Pressure Air Temp Water Temp Dewpoint Dewpoint Depression Visibility Wind Speed Wind Dir Waves Ship Positions

Lifter

Last reported at 2017-Jun-23 12:40 UTC. Time now 2017-Jun-23 14:00 UTC.
Position N 35°48' E 031°19'.

Length 119 m; draft 7.2 m.

Type: Cargo ship. MMSI: 305175000.

Date/timePositionNaut miles runAvg speedWind from/ knotsBaromVisibWave heightAir tempDewpointWater temp
2017-Jun-23 12:40N 35°48' E 031°19'211.8
2017-Jun-23 12:31N 35°48' E 031°22'148 9.4
2017-Jun-22 20:43N 35°26' E 034°21'1111.7
2017-Jun-22 19:45N 35°19' E 034°10'311.7
2017-Jun-22 19:30N 35°18' E 034°08'12 7.1
2017-Jun-22 17:51N 35°09' E 033°58'1 2.9
2017-Jun-22 17:30N 35°10' E 033°58'510.2
2017-Jun-22 17:00N 35°15' E 033°58'  
2017-Jun-20 05:39N 32°54' E 034°48'210.7
2017-Jun-20 05:25N 32°54' E 034°51'511.4
2017-Jun-20 05:00N 32°52' E 034°57'5 9.5
2017-Jun-20 04:30N 32°49' E 035°01'0 0.7
2017-Jun-20 03:59N 32°49' E 035°01'0 0.0
2017-Jun-20 03:29N 32°49' E 035°01'0 0.0
2017-Jun-20 02:59N 32°49' E 035°01'0 0.0
2017-Jun-20 02:29N 32°49' E 035°01'0 0.0
2017-Jun-20 01:59N 32°49' E 035°01'0 0.0
2017-Jun-20 01:29N 32°49' E 035°01'0 0.0
2017-Jun-20 00:59N 32°49' E 035°01'1 1.7
2017-Jun-20 00:30N 32°50' E 035°01'2 3.0
2017-Jun-20 00:00N 32°51' E 035°00'2 4.0
2017-Jun-19 23:30N 32°52' E 034°58'611.7
2017-Jun-19 23:00N 32°53' E 034°51'1512.0
2017-Jun-19 21:48N 32°56' E 034°34'5 4.3
2017-Jun-19 20:33N 32°54' E 034°40'0 9.6
2017-Jun-19 20:30N 32°54' E 034°40'4 6.9
2017-Jun-19 19:53N 32°56' E 034°36'511.1
2017-Jun-19 19:26N 32°57' E 034°30'511.1
2017-Jun-19 18:58N 32°58' E 034°24'1911.4
2017-Jun-19 17:18N 33°01' E 034°01'711.5
2017-Jun-19 16:39N 33°03' E 033°53'  
2017-Jun-16 10:46N 36°26' E 015°41'412.5
2017-Jun-16 10:29N 36°27' E 015°37'812.3
2017-Jun-16 09:50N 36°28' E 015°27'412.2
2017-Jun-16 09:29N 36°29' E 015°22'612.2
2017-Jun-16 09:00N 36°30' E 015°15'612.0
2017-Jun-16 08:30N 36°30' E 015°08'612.2
2017-Jun-16 08:00N 36°31' E 015°00'712.9
2017-Jun-16 07:30N 36°32' E 014°52'613.1
2017-Jun-16 07:00N 36°35' E 014°45'713.2
2017-Jun-16 06:30N 36°38' E 014°37'713.4
2017-Jun-16 06:00N 36°40' E 014°30'713.2
2017-Jun-16 05:30N 36°42' E 014°22'612.6
2017-Jun-16 05:00N 36°46' E 014°15'612.6
2017-Jun-16 04:30N 36°48' E 014°08'612.6
2017-Jun-16 04:00N 36°51' E 014°01'612.5
2017-Jun-16 03:30N 36°53' E 013°53'612.5
2017-Jun-16 03:00N 36°55' E 013°46'612.4
2017-Jun-16 02:30N 36°58' E 013°39'612.2
2017-Jun-16 02:00N 36°60' E 013°32'612.0
2017-Jun-16 01:30N 37°02' E 013°25'612.0
2017-Jun-16 01:00N 37°05' E 013°18'611.9
2017-Jun-16 00:30N 37°07' E 013°11'611.9
2017-Jun-16 00:00N 37°09' E 013°04'612.3
2017-Jun-15 23:30N 37°12' E 012°57'612.2
2017-Jun-15 23:00N 37°14' E 012°50'612.1
2017-Jun-15 22:30N 37°15' E 012°43'612.2
2017-Jun-15 22:00N 37°16' E 012°35'612.4
2017-Jun-15 21:30N 37°17' E 012°27'612.0
2017-Jun-15 21:00N 37°18' E 012°20'611.7
2017-Jun-15 20:30N 37°18' E 012°13'611.7
2017-Jun-15 20:00N 37°19' E 012°05'612.1
2017-Jun-15 19:30N 37°19' E 011°58'611.9
2017-Jun-15 19:00N 37°19' E 011°50'611.8
2017-Jun-15 18:30N 37°20' E 011°43'612.0
2017-Jun-15 18:00N 37°20' E 011°35'611.6
2017-Jun-15 17:30N 37°19' E 011°28'611.6
2017-Jun-15 17:00N 37°20' E 011°21'611.6
2017-Jun-15 16:30N 37°21' E 011°14'612.0
2017-Jun-15 16:00N 37°24' E 011°07'612.0
2017-Jun-15 15:28N 37°25' E 010°59'612.0
2017-Jun-15 15:00N 37°27' E 010°52'1211.9
2017-Jun-15 13:59N 37°29' E 010°37'911.9
2017-Jun-15 13:14N 37°31' E 010°26'312.0
2017-Jun-15 12:59N 37°32' E 010°22'612.2
2017-Jun-15 12:27N 37°33' E 010°14'612.3
2017-Jun-15 12:00N 37°33' E 010°07'612.4
2017-Jun-15 11:29N 37°34' E 009°60'612.3
2017-Jun-15 11:00N 37°33' E 009°52'612.3
2017-Jun-15 10:30N 37°32' E 009°44'612.2
2017-Jun-15 09:59N 37°32' E 009°36'612.2
2017-Jun-15 09:30N 37°31' E 009°29'612.2
2017-Jun-15 09:00N 37°30' E 009°21'612.1
2017-Jun-15 08:30N 37°29' E 009°14'612.2
2017-Jun-15 08:00N 37°27' E 009°07'612.1
2017-Jun-15 07:29N 37°25' E 008°59'612.1
2017-Jun-15 06:58N 37°24' E 008°51'611.9
2017-Jun-15 06:29N 37°22' E 008°44'611.8
2017-Jun-15 05:59N 37°21' E 008°37'611.8
2017-Jun-15 05:30N 37°20' E 008°30'711.5
2017-Jun-15 04:53N 37°20' E 008°21'611.7
2017-Jun-15 04:24N 37°19' E 008°14'511.9
2017-Jun-15 04:00N 37°20' E 008°08'812.5
2017-Jun-15 03:22N 37°20' E 007°58'512.7
2017-Jun-15 03:00N 37°20' E 007°52'712.7
2017-Jun-15 02:29N 37°20' E 007°44'1012.4
2017-Jun-15 01:42N 37°20' E 007°32'412.4
2017-Jun-15 01:20N 37°20' E 007°26'612.2
2017-Jun-15 00:50N 37°20' E 007°18'412.1
2017-Jun-15 00:30N 37°20' E 007°13'712.2
2017-Jun-14 23:54N 37°19' E 007°04'712.4
2017-Jun-14 23:22N 37°19' E 006°56'612.6
2017-Jun-14 22:55N 37°19' E 006°49'612.6
2017-Jun-14 22:27N 37°18' E 006°41'1012.4
2017-Jun-14 21:39N 37°18' E 006°29'212.4
2017-Jun-14 21:28N 37°17' E 006°26'1012.4
2017-Jun-14 20:40N 37°17' E 006°13'312.4
2017-Jun-14 20:23N 37°16' E 006°09'512.5
2017-Jun-14 19:59N 37°16' E 006°03'712.4
2017-Jun-14 19:26N 37°15' E 005°54'612.2
2017-Jun-14 18:54N 37°15' E 005°46'512.3
2017-Jun-14 18:30N 37°14' E 005°40'612.3
2017-Jun-14 18:00N 37°14' E 005°32'712.2
2017-Jun-14 17:25N 37°13' E 005°23'512.2
2017-Jun-14 16:59N 37°13' E 005°17'612.1
2017-Jun-14 16:28N 37°12' E 005°09'912.1
2017-Jun-14 15:43N 37°12' E 004°58'312.1
2017-Jun-14 15:29N 37°11' E 004°54'712.2
2017-Jun-14 14:57N 37°11' E 004°46'1212.2
2017-Jun-14 13:57N 37°10' E 004°31'912.1
2017-Jun-14 13:11N 37°10' E 004°19'312.2
2017-Jun-14 12:54N 37°09' E 004°15'512.2
2017-Jun-14 12:30N 37°09' E 004°09'612.2
2017-Jun-14 12:00N 37°09' E 004°01'611.9
2017-Jun-14 11:30N 37°08' E 003°54'612.2
2017-Jun-14 11:00N 37°08' E 003°46'1212.5
2017-Jun-14 10:02N 37°06' E 003°31'112.8
2017-Jun-14 09:59N 37°06' E 003°30'712.8
2017-Jun-14 09:26N 37°05' E 003°21'612.9
2017-Jun-14 09:00N 37°04' E 003°15'812.8
2017-Jun-14 08:24N 37°03' E 003°05'512.6
2017-Jun-14 08:00N 37°01' E 002°59'612.6
2017-Jun-14 07:30N 36°60' E 002°51'612.5
2017-Jun-14 07:00N 36°58' E 002°44'1812.4
2017-Jun-14 05:33N 36°55' E 002°22'112.2
2017-Jun-14 05:30N 36°55' E 002°21'2111.9
2017-Jun-14 03:43N 36°52' E 001°54'311.8
2017-Jun-14 03:30N 36°52' E 001°51'611.8
2017-Jun-14 02:59N 36°51' E 001°44'611.7
2017-Jun-14 02:27N 36°50' E 001°36'1111.5
2017-Jun-14 01:28N 36°48' E 001°22'711.7
2017-Jun-14 00:54N 36°47' E 001°14'3312.3
2017-Jun-13 22:14N 36°42' E 000°33'312.3
2017-Jun-13 21:59N 36°42' E 000°30'612.3
2017-Jun-13 21:30N 36°41' E 000°22'612.1
2017-Jun-13 21:00N 36°40' E 000°15'3311.8
2017-Jun-13 18:13N 36°35' W 000°25'311.5
2017-Jun-13 18:00N 36°34' W 000°29'1811.4
2017-Jun-13 16:24N 36°32' W 000°51'511.5
2017-Jun-13 16:00N 36°31' W 000°57'611.5
2017-Jun-13 15:30N 36°30' W 001°04'  

Dump ship's entire track history